Abu Dhabi, UAE

11:23 PM GST on February 27, 2017 (GMT +0400)
Abu Dhabi International | | Change Station

Elev 89 ft 24.43 °N, 54.65 °E | Updated 23 minutes ago

Partly Cloudy
Partly Cloudy
64 °F
Feels Like 64 °F
N
2
Wind Variable Wind from North

Today
High -- | Low -- °F
--% Chance of Precip.
Yesterday
High -- | Low -- °F
Precip. -- in
Pressure 30.04 in
Visibility 6.2 miles
Clouds Few 3000 ft
Dew Point 52 °F
Humidity 64%
Rainfall 0.00 in
Snow Depth Not available.
6:45 AM 6:22 PM
New Moon, 2% visible
METAR OMAA 271900Z 01002KT 9999 FEW030 18/11 Q1017 NOSIG
Pressure 30.04 in
Visibility 6.2 miles
Clouds Few 3000 ft
Dew Point 52 °F
Humidity 64%
Rainfall 0.00 in
Snow Depth Not available.
6:45 AM 6:22 PM
New Moon, 2% visible
METAR OMAA 271900Z 01002KT 9999 FEW030 18/11 Q1017 NOSIG

Get Your Daily Forecast Email!

Thanks for signing up!

Be on the lookout for a verification email in your inbox.

You'll start receiving the daily forecast at 8 AM.

×

10-Day Weather Forecast

No radar image for this location.
×

Almanac

Astronomy

Feb. 27, 2017 Rise Set
Actual Time
Civil Twilight
Nautical Twilight
Astronomical Twilight
Moon
Length of Visible Light
Length of Day
Tomorrow will be .
, % of the Moon is Illuminated

Today's Extremes

Country Highs Country Lows

Community

WunderPhotos

Upload Photos

1,962,540 photos uploaded!

WunderBlog® & News

Nearby

Air Quality

  Air Quality AQ Index Pollutant
Not available.

Snow Depth

Station Depth Elevation

Earthquake Activity

City Distance Mag. Time & Date
Minimum magnitude displayed is 2.5.

Coastal Water Temperatures

Place Temperature

Stations

Nearby Weather Stations

Station Location Temp. Windchill Dew Point Humidity Wind Precip. Elev Updated Type